Time;durP1;ratioP1;P1;durP2;ratioP2;P2;SDS_P1;SDS_P2;PMS_P1;PMS_P2;Temp;Humidity;BMP_temperature;BMP_pressure;BME280_temperature;BME280_humidity;BME280_pressure;Samples;Min_cycle;Max_cycle;Signal;HPM_P1;HPM_P2
2022/11/28 00:00:31;;;;;;;4.15;2.78;;;6.30;99.90;;;;;;5054317;28;20068;-73
2022/11/28 00:02:56;;;;;;;3.55;2.63;;;6.50;99.90;;;;;;5037276;28;20057;-73
2022/11/28 00:05:22;;;;;;;4.20;2.97;;;6.30;99.90;;;;;;5054483;28;20044;-73
2022/11/28 00:07:48;;;;;;;4.43;3.00;;;6.30;99.90;;;;;;5054035;28;20049;-73
2022/11/28 00:10:13;;;;;;;5.60;2.83;;;6.30;99.90;;;;;;5054550;28;20049;-73
2022/11/28 00:12:39;;;;;;;4.43;2.92;;;6.30;99.90;;;;;;5036656;28;20084;-73
2022/11/28 00:15:05;;;;;;;4.10;2.92;;;6.30;99.90;;;;;;5037454;28;20056;-73
2022/11/28 00:17:31;;;;;;;4.97;2.85;;;6.30;99.90;;;;;;5054837;28;20053;-74
2022/11/28 00:19:56;;;;;;;5.22;2.90;;;6.50;99.90;;;;;;5054717;28;20119;-73
2022/11/28 00:22:22;;;;;;;3.95;2.65;;;6.80;99.90;;;;;;5054274;28;20095;-73
2022/11/28 00:24:48;;;;;;;5.10;2.58;;;6.30;99.90;;;;;;5054040;28;20049;-73
2022/11/28 00:27:14;;;;;;;3.78;2.70;;;6.30;99.90;;;;;;5054586;28;20040;-73
2022/11/28 00:29:39;;;;;;;4.85;3.10;;;7.10;99.90;;;;;;5037221;28;20053;-73
2022/11/28 00:32:05;;;;;;;4.80;2.90;;;6.30;99.90;;;;;;5054479;28;20450;-73
2022/11/28 00:34:31;;;;;;;4.80;3.10;;;6.40;99.90;;;;;;5053975;28;20501;-73
2022/11/28 00:36:57;;;;;;;3.50;2.45;;;6.40;99.90;;;;;;5053271;28;20068;-73
2022/11/28 00:39:22;;;;;;;5.90;3.25;;;6.40;99.90;;;;;;5036270;28;20059;-73
2022/11/28 00:41:48;;;;;;;4.80;2.90;;;6.40;99.90;;;;;;5036096;28;20049;-72
2022/11/28 00:44:14;;;;;;;4.80;3.13;;;6.70;99.90;;;;;;5053789;28;20041;-73
2022/11/28 00:46:40;;;;;;;3.97;2.60;;;6.40;99.90;;;;;;5054982;28;20434;-73
2022/11/28 00:49:06;;;;;;;3.92;2.85;;;6.40;99.90;;;;;;5035622;28;20485;-73
2022/11/28 00:51:33;;;;;;;4.70;3.05;;;6.90;99.90;;;;;;5036071;28;20059;-72
2022/11/28 00:54:00;;;;;;;4.47;2.88;;;6.40;99.90;;;;;;5054444;28;20045;-73
2022/11/28 00:56:37;;;;;;;4.53;3.03;;;6.70;99.90;;;;;;5035840;28;20060;-73
2022/11/28 00:59:03;;;;;;;4.03;2.97;;;6.40;99.90;;;;;;5036277;28;20049;-73
2022/11/28 01:01:38;;;;;;;4.15;2.88;;;6.40;99.90;;;;;;5035544;28;20102;-72
2022/11/28 01:04:07;;;;;;;4.00;2.55;;;6.40;99.90;;;;;;5053426;28;20084;-73
2022/11/28 01:06:44;;;;;;;3.95;2.60;;;7.00;99.90;;;;;;5053404;28;20127;-73
2022/11/28 01:09:14;;;;;;;6.05;2.90;;;6.40;99.90;;;;;;5053877;28;20102;-73
2022/11/28 01:11:40;;;;;;;4.07;3.00;;;6.40;99.90;;;;;;5053341;28;20063;-73
2022/11/28 01:14:07;;;;;;;4.50;2.95;;;6.70;99.90;;;;;;5053354;28;20052;-72
2022/11/28 01:16:33;;;;;;;4.38;2.95;;;6.50;99.90;;;;;;5053740;28;20067;-72
2022/11/28 01:18:59;;;;;;;5.05;3.15;;;6.60;99.90;;;;;;5053253;28;20045;-72
2022/11/28 01:21:27;;;;;;;4.57;2.80;;;6.50;99.90;;;;;;5053219;28;20465;-72
2022/11/28 01:23:53;;;;;;;5.55;3.08;;;6.50;99.90;;;;;;5052764;28;20045;-73
2022/11/28 01:26:23;;;;;;;4.97;2.90;;;6.50;99.90;;;;;;5053814;28;20385;-73
2022/11/28 01:28:49;;;;;;;4.70;3.20;;;6.50;99.90;;;;;;5035595;28;20496;-73
2022/11/28 01:31:19;;;;;;;4.47;3.17;;;6.50;99.90;;;;;;5036313;28;20041;-72
2022/11/28 01:33:45;;;;;;;4.57;2.88;;;6.50;99.90;;;;;;5035657;28;20059;-72
2022/11/28 01:36:12;;;;;;;5.28;3.20;;;6.50;99.90;;;;;;5052819;28;20045;-72
2022/11/28 01:38:39;;;;;;;4.18;2.88;;;6.50;99.90;;;;;;5053857;28;20053;-72
2022/11/28 01:41:05;;;;;;;4.75;3.03;;;6.50;99.90;;;;;;5053068;28;20456;-72
2022/11/28 01:43:31;;;;;;;4.75;2.97;;;6.50;99.90;;;;;;5052889;28;20405;-73
2022/11/28 01:45:57;;;;;;;4.78;3.03;;;6.50;99.90;;;;;;5035122;28;20482;-72
2022/11/28 01:48:31;;;;;;;4.30;2.92;;;6.50;99.90;;;;;;5035116;28;20049;-72
2022/11/28 01:51:00;;;;;;;4.22;2.90;;;6.50;99.90;;;;;;5023366;28;20048;-72
2022/11/28 01:53:29;;;;;;;5.90;3.10;;;6.50;99.90;;;;;;5023007;28;20045;-72
2022/11/28 01:56:01;;;;;;;3.92;2.70;;;6.50;99.90;;;;;;5039263;28;20037;-72
2022/11/28 01:58:28;;;;;;;4.20;3.45;;;6.80;99.90;;;;;;5039593;28;20114;-72
2022/11/28 02:00:54;;;;;;;4.55;2.78;;;6.50;99.90;;;;;;5039133;28;20179;-72
2022/11/28 02:03:39;;;;;;;5.45;3.10;;;6.50;99.90;;;;;;5056793;28;20045;-72
2022/11/28 02:06:05;;;;;;;4.68;3.00;;;6.50;99.90;;;;;;5057276;28;20045;-72
2022/11/28 02:08:35;;;;;;;4.72;3.17;;;6.50;99.90;;;;;;5056605;28;20123;-72
2022/11/28 02:11:10;;;;;;;4.45;2.88;;;6.50;99.90;;;;;;5038895;28;20045;-72
2022/11/28 02:13:50;;;;;;;5.10;3.00;;;6.50;99.90;;;;;;5039367;28;20052;-72
2022/11/28 02:16:29;;;;;;;4.72;2.88;;;6.50;99.90;;;;;;5056625;28;20520;-72
2022/11/28 02:19:12;;;;;;;5.65;3.60;;;6.50;99.90;;;;;;5056655;28;20045;-73
2022/11/28 02:21:57;;;;;;;4.97;2.95;;;6.60;99.90;;;;;;5039689;28;20048;-72
2022/11/28 02:24:54;;;;;;;6.30;3.08;;;6.50;99.90;;;;;;5056450;28;20128;-72
2022/11/28 02:27:39;;;;;;;6.13;3.10;;;6.50;99.90;;;;;;5056090;28;20053;-72
2022/11/28 02:30:17;;;;;;;4.30;2.83;;;6.60;99.90;;;;;;5056360;28;20048;-72
2022/11/28 02:33:07;;;;;;;5.05;2.85;;;6.60;99.90;;;;;;5056245;28;20389;-72
2022/11/28 02:35:49;;;;;;;4.38;3.30;;;6.60;99.90;;;;;;5056264;28;20041;-72
2022/11/28 02:38:54;;;;;;;5.85;3.13;;;6.60;99.90;;;;;;5056873;28;20099;-72
2022/11/28 02:41:39;;;;;;;5.68;3.50;;;6.60;99.90;;;;;;5027549;28;20110;-72
2022/11/28 02:44:04;;;;;;;5.25;3.63;;;6.60;99.90;;;;;;5056349;28;20103;-72
2022/11/28 02:46:39;;;;;;;5.30;3.50;;;6.60;99.90;;;;;;5056564;28;20485;-73
2022/11/28 02:49:09;;;;;;;4.75;3.40;;;6.60;99.90;;;;;;5022244;28;20047;-72
2022/11/28 02:51:45;;;;;;;4.43;3.45;;;6.70;99.90;;;;;;5038427;28;20440;-73
2022/11/28 02:54:13;;;;;;;4.10;2.92;;;6.70;99.90;;;;;;5038801;28;20406;-73
2022/11/28 02:56:50;;;;;;;5.05;3.60;;;6.60;99.90;;;;;;5055922;28;20048;-72
2022/11/28 02:59:37;;;;;;;4.65;3.35;;;6.70;99.90;;;;;;5038371;28;20056;-72
2022/11/28 03:02:06;;;;;;;5.40;3.53;;;6.70;99.90;;;;;;5056558;28;20128;-72
2022/11/28 03:04:38;;;;;;;6.28;3.63;;;7.10;99.90;;;;;;5055633;28;20049;-73
2022/11/28 03:07:32;;;;;;;5.55;3.55;;;6.70;99.90;;;;;;5055655;28;20052;-73
2022/11/28 03:10:29;;;;;;;4.45;3.17;;;6.70;99.90;;;;;;5038375;28;20052;-72
2022/11/28 03:13:41;;;;;;;4.20;3.00;;;6.70;99.90;;;;;;5055685;28;20106;-72
2022/11/28 03:16:40;;;;;;;5.07;3.67;;;6.70;99.90;;;;;;5011616;28;20057;-72
2022/11/28 03:19:14;;;;;;;5.38;3.28;;;6.80;99.90;;;;;;5041568;28;20052;-72
2022/11/28 03:21:56;;;;;;;5.07;3.50;;;6.80;99.90;;;;;;5037855;28;20398;-72
2022/11/28 03:24:25;;;;;;;4.68;3.63;;;6.80;99.90;;;;;;5055907;28;20053;-73
2022/11/28 03:27:06;;;;;;;5.07;3.30;;;6.90;99.90;;;;;;5055319;28;20138;-73
2022/11/28 03:29:51;;;;;;;4.85;3.58;;;6.80;99.90;;;;;;5055376;28;20056;-73
2022/11/28 03:32:35;;;;;;;5.55;3.47;;;6.90;99.90;;;;;;5038045;28;20060;-72
2022/11/28 03:35:15;;;;;;;6.13;3.53;;;6.90;99.90;;;;;;5055207;28;20137;-73
2022/11/28 03:37:53;;;;;;;4.32;3.25;;;6.90;99.90;;;;;;5055417;28;20068;-73
2022/11/28 03:40:24;;;;;;;6.97;4.15;;;6.90;99.90;;;;;;5037503;28;20053;-73
2022/11/28 03:42:57;;;;;;;4.97;3.63;;;6.90;99.90;;;;;;5055250;28;20453;-72
2022/11/28 03:45:27;;;;;;;5.07;3.85;;;6.90;99.90;;;;;;5038083;28;20045;-72
2022/11/28 03:48:11;;;;;;;4.97;3.53;;;7.00;99.90;;;;;;5054588;28;20049;-72
2022/11/28 03:50:52;;;;;;;6.13;3.70;;;7.00;99.90;;;;;;5038073;28;20475;-72
2022/11/28 03:53:26;;;;;;;5.43;4.18;;;7.00;99.90;;;;;;5054807;28;20052;-72
2022/11/28 03:56:02;;;;;;;6.30;3.58;;;7.00;99.90;;;;;;5054780;28;20052;-72
2022/11/28 03:58:40;;;;;;;5.90;3.85;;;7.00;99.90;;;;;;5054710;28;20175;-72
2022/11/28 04:01:39;;;;;;;6.38;4.00;;;6.90;99.90;;;;;;5054414;28;20474;-72
2022/11/28 04:04:14;;;;;;;4.93;3.92;;;6.90;99.90;;;;;;5055078;28;20446;-72
2022/11/28 04:07:07;;;;;;;7.25;4.10;;;6.90;99.90;;;;;;5054455;28;20056;-72
2022/11/28 04:09:46;;;;;;;7.15;4.10;;;6.90;99.90;;;;;;5054334;28;20532;-72
2022/11/28 04:12:25;;;;;;;6.50;4.45;;;6.90;99.90;;;;;;5054369;28;20053;-72
2022/11/28 04:14:59;;;;;;;6.45;4.53;;;7.10;99.90;;;;;;5054904;28;20098;-72
2022/11/28 04:17:36;;;;;;;6.40;4.28;;;6.90;99.90;;;;;;5054414;28;20060;-72
2022/11/28 04:20:12;;;;;;;8.50;4.53;;;6.90;99.90;;;;;;5054329;28;20133;-72
2022/11/28 04:22:44;;;;;;;7.50;4.80;;;6.90;99.90;;;;;;5054621;28;20110;-72
2022/11/28 04:25:14;;;;;;;7.28;5.00;;;7.00;99.90;;;;;;5054261;28;20288;-72
2022/11/28 04:27:46;;;;;;;6.88;5.15;;;6.90;99.90;;;;;;5036474;28;20493;-72
2022/11/28 04:30:12;;;;;;;7.22;5.00;;;7.30;99.90;;;;;;5054104;28;20041;-72
2022/11/28 04:32:45;;;;;;;8.43;5.40;;;6.90;99.90;;;;;;5036399;28;20044;-72
2022/11/28 04:35:17;;;;;;;8.70;5.57;;;6.90;99.90;;;;;;5054598;28;20045;-72
2022/11/28 04:37:47;;;;;;;8.25;5.40;;;6.90;99.90;;;;;;5033551;28;20089;-72
2022/11/28 04:40:15;;;;;;;7.97;4.93;;;6.90;99.90;;;;;;5033927;28;20049;-72
2022/11/28 04:42:52;;;;;;;9.30;5.55;;;6.90;99.90;;;;;;5034494;28;20046;-73
2022/11/28 04:45:27;;;;;;;7.53;4.80;;;7.00;99.90;;;;;;5033869;28;20048;-73
2022/11/28 04:47:53;;;;;;;10.70;5.43;;;6.90;99.90;;;;;;5034488;28;20049;-72
2022/11/28 04:50:23;;;;;;;8.57;5.40;;;7.10;99.90;;;;;;5033793;28;20128;-72
2022/11/28 04:52:56;;;;;;;8.63;5.80;;;7.00;99.90;;;;;;5034579;28;20120;-72
2022/11/28 04:55:25;;;;;;;7.07;5.15;;;7.20;99.90;;;;;;5033757;28;20077;-72
2022/11/28 04:58:08;;;;;;;8.15;6.05;;;7.00;99.90;;;;;;5032822;28;20175;-72
2022/11/28 05:00:36;;;;;;;9.15;6.80;;;7.10;99.90;;;;;;5033543;28;20053;-72
2022/11/28 05:03:04;;;;;;;9.57;6.40;;;7.10;99.90;;;;;;5032612;28;20049;-72
2022/11/28 05:05:30;;;;;;;9.48;7.00;;;7.10;99.90;;;;;;5033525;28;20052;-72
2022/11/28 05:07:57;;;;;;;9.60;6.78;;;7.20;99.90;;;;;;5033527;28;20049;-71
2022/11/28 05:10:23;;;;;;;8.55;6.88;;;7.20;99.90;;;;;;5032455;28;20053;-72
2022/11/28 05:12:49;;;;;;;10.77;7.32;;;7.30;99.90;;;;;;5033405;28;20049;-72
2022/11/28 05:15:18;;;;;;;8.30;6.70;;;8.00;99.90;;;;;;5033341;28;20042;-72
2022/11/28 05:17:45;;;;;;;8.00;6.55;;;7.40;99.90;;;;;;5033445;28;20085;-72
2022/11/28 05:20:11;;;;;;;12.18;7.10;;;7.40;99.90;;;;;;5033106;28;20478;-72
2022/11/28 05:22:37;;;;;;;9.27;7.10;;;7.40;99.90;;;;;;5033162;28;20144;-71
2022/11/28 05:25:03;;;;;;;10.35;7.30;;;7.50;99.90;;;;;;5032991;28;20128;-72
2022/11/28 05:27:28;;;;;;;9.52;7.43;;;7.50;99.90;;;;;;5016705;28;20049;-72
2022/11/28 05:29:54;;;;;;;11.18;7.30;;;7.50;99.90;;;;;;5032040;28;20076;-72
2022/11/28 05:32:20;;;;;;;10.45;7.10;;;7.50;99.90;;;;;;5033772;28;20049;-71
2022/11/28 05:34:45;;;;;;;10.52;7.07;;;7.50;99.90;;;;;;5032064;28;20124;-71
2022/11/28 05:37:11;;;;;;;10.40;7.68;;;7.60;99.90;;;;;;5041870;28;20114;-71
2022/11/28 05:39:37;;;;;;;11.40;7.55;;;7.60;99.90;;;;;;5035011;28;20069;-71
2022/11/28 05:42:03;;;;;;;11.63;7.85;;;7.60;99.90;;;;;;5052939;28;20132;-71
2022/11/28 05:44:30;;;;;;;9.38;7.10;;;7.60;99.90;;;;;;5053294;28;20045;-72
2022/11/28 05:46:55;;;;;;;11.85;7.00;;;7.60;99.90;;;;;;5035572;28;20107;-72
2022/11/28 05:49:21;;;;;;;10.18;7.80;;;7.60;99.90;;;;;;5035181;28;20128;-71
2022/11/28 05:51:47;;;;;;;10.63;6.85;;;8.00;99.90;;;;;;5052812;28;20045;-72
2022/11/28 05:54:13;;;;;;;9.57;6.85;;;7.60;99.90;;;;;;5053337;28;20056;-71
2022/11/28 05:56:39;;;;;;;9.00;7.18;;;7.60;99.90;;;;;;5052935;28;20094;-72
2022/11/28 05:59:05;;;;;;;11.13;7.75;;;7.60;99.90;;;;;;5035067;28;20124;-72
2022/11/28 06:01:30;;;;;;;11.82;7.95;;;7.80;99.90;;;;;;5035788;28;20055;-72
2022/11/28 06:03:59;;;;;;;9.55;6.93;;;7.60;99.90;;;;;;5052747;28;20044;-72
2022/11/28 06:06:30;;;;;;;10.52;7.75;;;7.70;99.90;;;;;;5052883;28;20523;-72
2022/11/28 06:08:56;;;;;;;9.38;6.90;;;7.70;99.90;;;;;;5052786;28;20081;-71
2022/11/28 06:11:24;;;;;;;9.82;7.07;;;7.70;99.90;;;;;;5052363;28;20150;-72
2022/11/28 06:13:50;;;;;;;8.70;6.80;;;7.70;99.90;;;;;;5052692;28;20501;-72
2022/11/28 06:16:21;;;;;;;8.70;6.90;;;7.70;99.90;;;;;;5052701;28;20138;-71
2022/11/28 06:18:46;;;;;;;9.90;6.75;;;7.70;99.90;;;;;;5035449;28;20053;-72
2022/11/28 06:21:14;;;;;;;9.43;7.00;;;7.70;99.90;;;;;;5034975;28;20052;-72
2022/11/28 06:23:40;;;;;;;9.50;6.75;;;7.70;99.90;;;;;;5052913;28;20119;-72
2022/11/28 06:26:12;;;;;;;8.30;6.45;;;7.70;99.90;;;;;;5052525;28;20524;-72
2022/11/28 06:28:39;;;;;;;8.73;6.28;;;7.70;99.90;;;;;;5052627;28;20130;-72
2022/11/28 06:31:13;;;;;;;8.10;6.13;;;7.70;99.90;;;;;;5052585;28;20045;-71
2022/11/28 06:33:39;;;;;;;8.05;6.53;;;7.70;99.90;;;;;;5053295;28;20131;-72
2022/11/28 06:36:06;;;;;;;8.35;6.28;;;8.00;99.90;;;;;;5037730;28;20374;-72
2022/11/28 06:38:32;;;;;;;8.93;6.10;;;7.70;99.90;;;;;;5056276;28;20053;-72
2022/11/28 06:41:00;;;;;;;8.90;5.70;;;7.70;99.90;;;;;;5038519;28;20063;-71
2022/11/28 06:43:26;;;;;;;7.88;5.82;;;7.70;99.90;;;;;;5056163;28;20040;-72
2022/11/28 06:45:52;;;;;;;8.07;6.32;;;7.70;99.90;;;;;;5055955;28;20080;-73
2022/11/28 06:48:18;;;;;;;9.45;6.38;;;7.70;99.90;;;;;;5038567;28;20133;-72
2022/11/28 06:50:44;;;;;;;8.70;6.32;;;7.80;99.90;;;;;;5056274;28;20092;-72
2022/11/28 06:53:10;;;;;;;6.82;5.40;;;7.70;99.90;;;;;;5037831;28;20478;-71
2022/11/28 06:55:36;;;;;;;8.27;5.50;;;7.90;99.90;;;;;;5055869;28;20045;-71
2022/11/28 06:58:01;;;;;;;7.93;5.80;;;7.70;99.90;;;;;;5039071;28;20057;-72
2022/11/28 07:00:28;;;;;;;8.27;5.68;;;7.70;99.90;;;;;;5055731;28;20045;-72
2022/11/28 07:02:53;;;;;;;7.75;5.85;;;7.70;99.90;;;;;;5055638;28;20406;-72
2022/11/28 07:05:20;;;;;;;7.72;5.75;;;7.70;99.90;;;;;;5037981;28;20106;-72
2022/11/28 07:07:47;;;;;;;7.50;6.45;;;7.60;99.90;;;;;;5021640;28;20045;-73
2022/11/28 07:10:13;;;;;;;7.85;6.28;;;7.60;99.90;;;;;;5038290;28;20132;-72
2022/11/28 07:12:39;;;;;;;8.45;5.97;;;7.60;99.90;;;;;;5037921;28;20137;-71
2022/11/28 07:15:08;;;;;;;9.52;6.82;;;7.60;99.90;;;;;;5055497;28;20087;-65
2022/11/28 07:17:34;;;;;;;9.63;6.95;;;7.60;99.90;;;;;;5021476;28;20474;-65
2022/11/28 07:20:00;;;;;;;10.45;6.97;;;7.60;99.90;;;;;;5055470;28;20049;-65
2022/11/28 07:22:26;;;;;;;9.65;7.10;;;7.60;99.90;;;;;;5055406;28;20049;-65
2022/11/28 07:24:51;;;;;;;9.35;6.85;;;8.10;99.90;;;;;;5055980;28;20051;-65
2022/11/28 07:27:17;;;;;;;10.48;7.00;;;7.60;99.90;;;;;;5056078;28;20076;-65
2022/11/28 07:29:43;;;;;;;8.73;6.68;;;7.60;99.90;;;;;;5054920;28;20512;-65
2022/11/28 07:32:09;;;;;;;10.27;7.30;;;7.90;99.90;;;;;;5055128;28;20041;-65
2022/11/28 07:34:35;;;;;;;9.85;7.50;;;7.60;99.90;;;;;;5055068;28;20041;-65
2022/11/28 07:37:01;;;;;;;8.90;6.75;;;7.60;99.90;;;;;;5037316;28;20128;-65
2022/11/28 07:39:26;;;;;;;9.32;6.82;;;7.60;99.90;;;;;;5054723;28;20052;-65
2022/11/28 07:41:52;;;;;;;9.63;6.57;;;7.90;99.90;;;;;;5036408;28;20107;-64
2022/11/28 07:44:18;;;;;;;9.55;7.25;;;7.70;99.90;;;;;;5037080;28;20053;-65
2022/11/28 07:46:46;;;;;;;10.80;7.20;;;7.70;99.90;;;;;;5054111;28;20416;-65
2022/11/28 07:49:13;;;;;;;10.27;7.57;;;7.60;99.90;;;;;;5054769;28;20049;-65
2022/11/28 07:51:39;;;;;;;9.60;7.15;;;7.60;99.90;;;;;;5055514;28;20053;-65
2022/11/28 07:54:06;;;;;;;10.23;8.20;;;7.70;99.90;;;;;;5037916;28;20370;-65
2022/11/28 07:56:35;;;;;;;9.05;7.55;;;7.70;99.90;;;;;;5054800;28;20502;-65
2022/11/28 07:59:01;;;;;;;10.70;7.57;;;7.70;99.90;;;;;;5054761;28;20053;-65
2022/11/28 08:01:29;;;;;;;12.80;9.45;;;7.70;99.90;;;;;;5036524;28;20088;-65
2022/11/28 08:03:55;;;;;;;11.27;7.80;;;7.70;99.90;;;;;;5054551;28;20052;-65
2022/11/28 08:06:25;;;;;;;10.45;8.02;;;7.70;99.90;;;;;;5054229;28;20484;-65
2022/11/28 08:08:51;;;;;;;11.30;7.18;;;7.70;99.90;;;;;;5037276;28;20060;-65
2022/11/28 08:11:19;;;;;;;12.40;9.00;;;7.90;99.90;;;;;;5054765;28;20045;-65
2022/11/28 08:13:46;;;;;;;11.73;7.50;;;7.70;99.90;;;;;;5054071;28;20080;-65
2022/11/28 08:16:13;;;;;;;11.57;8.45;;;7.70;99.90;;;;;;5054757;28;20051;-74
2022/11/28 08:18:39;;;;;;;11.45;9.40;;;7.70;99.90;;;;;;5036703;28;20052;-74
2022/11/28 08:21:26;;;;;;;11.38;9.05;;;7.70;99.90;;;;;;5020199;28;20041;-73
2022/11/28 08:23:53;;;;;;;10.48;8.60;;;7.70;99.90;;;;;;5037515;28;20068;-74
2022/11/28 08:26:21;;;;;;;12.63;8.77;;;7.70;99.90;;;;;;5053743;28;20478;-74
2022/11/28 08:28:49;;;;;;;10.77;7.80;;;7.70;99.90;;;;;;5054160;28;20084;-72
2022/11/28 08:31:17;;;;;;;12.43;8.25;;;7.70;99.90;;;;;;5054055;28;20045;-75
2022/11/28 08:33:44;;;;;;;12.05;8.68;;;7.70;99.90;;;;;;5054023;28;20057;-75
2022/11/28 08:36:11;;;;;;;10.68;8.02;;;7.70;99.90;;;;;;5054320;28;20083;-76
2022/11/28 08:38:37;;;;;;;10.75;8.10;;;7.70;99.90;;;;;;5053892;28;20139;-75
2022/11/28 08:41:06;;;;;;;10.77;8.63;;;7.70;99.90;;;;;;5053703;28;20045;-74
2022/11/28 08:43:33;;;;;;;11.70;8.98;;;7.70;99.90;;;;;;5037241;28;20063;-74
2022/11/28 08:45:59;;;;;;;12.50;9.45;;;8.00;99.90;;;;;;5054325;28;20081;-75
2022/11/28 08:48:24;;;;;;;12.43;9.23;;;7.70;99.90;;;;;;5054211;28;20422;-75
2022/11/28 08:50:50;;;;;;;13.45;9.95;;;7.70;99.90;;;;;;5036171;28;20045;-75
2022/11/28 08:53:16;;;;;;;12.45;8.90;;;7.70;99.90;;;;;;5054055;28;20264;-75
2022/11/28 08:55:46;;;;;;;12.77;9.05;;;7.70;99.90;;;;;;5036784;28;20103;-75
2022/11/28 08:58:11;;;;;;;11.85;7.88;;;7.70;99.90;;;;;;5035862;28;20520;-73
2022/11/28 09:00:37;;;;;;;11.80;8.57;;;7.70;99.90;;;;;;5053533;28;20162;-72
2022/11/28 09:03:03;;;;;;;10.98;7.80;;;7.70;99.90;;;;;;5053460;28;20132;-71
2022/11/28 09:05:29;;;;;;;12.30;8.57;;;7.70;99.90;;;;;;5035753;28;20037;-73
2022/11/28 09:07:55;;;;;;;11.90;8.63;;;8.40;99.90;;;;;;5053554;28;20103;-73
2022/11/28 09:10:22;;;;;;;12.57;8.63;;;7.80;99.90;;;;;;5053414;28;20524;-72
2022/11/28 09:12:47;;;;;;;10.35;7.55;;;7.80;99.90;;;;;;5053321;28;20124;-73
2022/11/28 09:15:13;;;;;;;10.32;7.38;;;8.10;99.90;;;;;;5053156;28;20150;-72
2022/11/28 09:17:39;;;;;;;11.60;8.73;;;7.80;99.90;;;;;;5035586;28;20045;-72
2022/11/28 09:20:06;;;;;;;9.77;8.07;;;7.80;99.90;;;;;;5053249;28;20045;-72
2022/11/28 09:22:32;;;;;;;12.00;8.55;;;7.80;99.90;;;;;;5035740;28;20125;-72
2022/11/28 09:24:57;;;;;;;9.45;7.25;;;7.60;99.90;;;;;;5036432;28;20049;-73
2022/11/28 09:27:23;;;;;;;10.05;7.55;;;7.90;99.90;;;;;;5053261;28;20103;-72
2022/11/28 09:29:49;;;;;;;10.48;8.27;;;7.80;99.90;;;;;;5053092;28;20083;-72
2022/11/28 09:32:15;;;;;;;9.95;7.65;;;7.80;99.90;;;;;;5053418;28;20041;-72
2022/11/28 09:34:40;;;;;;;10.02;8.18;;;7.70;99.90;;;;;;5018721;28;20076;-72
2022/11/28 09:37:06;;;;;;;10.18;7.80;;;7.80;99.90;;;;;;5053079;28;20140;-72
2022/11/28 09:39:32;;;;;;;10.13;7.78;;;7.70;99.90;;;;;;5053150;28;20083;-72
2022/11/28 09:42:09;;;;;;;10.43;7.30;;;7.80;99.90;;;;;;5035155;28;20158;-72
2022/11/28 09:44:46;;;;;;;8.90;7.13;;;7.70;99.90;;;;;;5053127;28;20088;-72
2022/11/28 09:47:20;;;;;;;10.10;6.82;;;7.80;99.90;;;;;;5053635;28;20053;-72
2022/11/28 09:49:54;;;;;;;8.82;6.32;;;7.80;99.90;;;;;;5053082;28;20045;-72
2022/11/28 09:52:31;;;;;;;10.95;7.68;;;7.70;99.90;;;;;;5054066;28;20120;-72
2022/11/28 09:55:04;;;;;;;9.85;7.40;;;7.80;99.90;;;;;;5035714;28;20092;-72
2022/11/28 09:57:44;;;;;;;10.75;7.50;;;7.80;99.90;;;;;;5036145;28;20103;-72
2022/11/28 10:00:16;;;;;;;10.38;7.18;;;7.90;99.90;;;;;;5053392;28;20054;-72
2022/11/28 10:03:00;;;;;;;9.27;6.38;;;7.80;99.90;;;;;;5053195;28;20448;-72
2022/11/28 10:05:40;;;;;;;8.52;6.55;;;7.80;99.90;;;;;;5052829;28;20045;-72
2022/11/28 10:08:38;;;;;;;8.73;6.63;;;7.70;99.90;;;;;;5053495;28;20084;-72
2022/11/28 10:11:16;;;;;;;9.27;7.03;;;7.80;99.90;;;;;;5038912;28;20056;-71
2022/11/28 10:14:16;;;;;;;7.30;6.28;;;7.70;99.90;;;;;;5056867;28;20084;-71
2022/11/28 10:16:42;;;;;;;9.40;6.20;;;7.80;99.90;;;;;;5038985;28;20124;-72
2022/11/28 10:19:14;;;;;;;9.15;6.45;;;7.80;99.90;;;;;;5039489;28;20132;-71
2022/11/28 10:21:48;;;;;;;9.75;7.00;;;7.80;99.90;;;;;;5039317;28;20497;-71
2022/11/28 10:24:21;;;;;;;8.30;6.15;;;7.80;99.90;;;;;;5056490;28;20496;-71
2022/11/28 10:26:53;;;;;;;8.73;6.32;;;7.80;99.90;;;;;;5056620;28;20044;-71
2022/11/28 10:29:47;;;;;;;8.10;6.30;;;7.80;99.90;;;;;;5056592;28;20053;-71
2022/11/28 10:32:17;;;;;;;7.43;6.03;;;7.80;99.90;;;;;;5054309;28;20507;-71
2022/11/28 10:34:59;;;;;;;8.60;6.38;;;7.80;99.90;;;;;;5056302;28;20044;-71
2022/11/28 10:37:32;;;;;;;8.45;6.30;;;7.80;99.90;;;;;;5056381;28;20053;-70
2022/11/28 10:40:28;;;;;;;8.68;6.18;;;7.80;99.90;;;;;;5056372;28;20100;-71
2022/11/28 10:43:19;;;;;;;8.45;6.53;;;7.80;99.90;;;;;;5056296;28;20052;-70
2022/11/28 10:46:26;;;;;;;8.52;6.70;;;7.80;99.90;;;;;;5025227;28;20049;-71
2022/11/28 10:49:08;;;;;;;8.38;6.57;;;7.80;99.90;;;;;;5028963;28;20432;-70
2022/11/28 10:51:56;;;;;;;8.90;6.68;;;7.80;99.90;;;;;;5055931;28;20048;-70
2022/11/28 10:54:53;;;;;;;9.05;6.45;;;7.70;99.90;;;;;;5038473;28;20521;-71
2022/11/28 10:57:37;;;;;;;9.10;6.70;;;7.80;99.90;;;;;;5038388;28;20555;-71
2022/11/28 11:00:11;;;;;;;9.05;6.78;;;7.80;99.90;;;;;;5056415;28;20060;-71
2022/11/28 11:02:45;;;;;;;8.27;6.35;;;7.80;99.90;;;;;;5055809;28;20134;-70
2022/11/28 11:05:20;;;;;;;8.43;6.47;;;7.80;99.90;;;;;;5038756;28;20041;-71
2022/11/28 11:08:15;;;;;;;9.13;6.57;;;7.80;99.90;;;;;;5055863;28;20124;-71
2022/11/28 11:10:53;;;;;;;8.63;7.05;;;7.80;99.90;;;;;;5055328;28;20102;-71
2022/11/28 11:13:24;;;;;;;8.02;6.07;;;7.80;99.90;;;;;;5055396;28;20103;-71
2022/11/28 11:16:06;;;;;;;8.88;6.40;;;7.80;99.90;;;;;;5055414;28;20052;-71
2022/11/28 11:18:49;;;;;;;8.00;6.20;;;7.80;99.90;;;;;;5056069;28;20049;-71
2022/11/28 11:21:25;;;;;;;7.63;6.25;;;7.80;99.90;;;;;;5056036;28;20382;-73
2022/11/28 11:24:14;;;;;;;7.90;6.10;;;8.00;99.90;;;;;;5038399;28;20045;-71
2022/11/28 11:26:44;;;;;;;8.38;6.47;;;7.80;99.90;;;;;;5055047;28;20052;-71
2022/11/28 11:29:36;;;;;;;8.73;6.60;;;7.80;99.90;;;;;;5055341;28;20053;-72
2022/11/28 11:32:05;;;;;;;7.80;6.22;;;7.80;99.90;;;;;;5055144;28;20053;-72
2022/11/28 11:34:42;;;;;;;9.85;6.60;;;7.80;99.90;;;;;;5054845;28;20095;-71
2022/11/28 11:37:31;;;;;;;9.07;6.75;;;7.90;99.90;;;;;;5037292;28;20355;-71
2022/11/28 11:39:58;;;;;;;8.90;6.63;;;7.90;99.90;;;;;;5055599;28;20061;-72
2022/11/28 11:42:29;;;;;;;9.93;6.85;;;7.90;99.90;;;;;;5038036;28;20049;-72
2022/11/28 11:44:56;;;;;;;8.75;6.55;;;7.90;99.90;;;;;;5054865;28;20045;-71
2022/11/28 11:47:42;;;;;;;8.95;6.47;;;8.30;99.90;;;;;;5037320;28;20053;-71
2022/11/28 11:50:20;;;;;;;8.73;6.75;;;7.90;99.90;;;;;;5055484;28;20053;-71
2022/11/28 11:53:15;;;;;;;9.43;7.10;;;7.90;99.90;;;;;;5055412;28;20044;-71
2022/11/28 11:55:50;;;;;;;9.35;7.03;;;7.90;99.90;;;;;;5024531;28;20056;-71
2022/11/28 11:58:27;;;;;;;8.48;6.57;;;7.90;99.90;;;;;;5054511;28;20492;-71
2022/11/28 12:00:56;;;;;;;10.43;6.97;;;7.90;99.90;;;;;;5054836;28;20060;-71
2022/11/28 12:03:45;;;;;;;7.55;6.30;;;8.10;99.90;;;;;;5054634;28;20040;-71
2022/11/28 12:06:21;;;;;;;8.38;6.68;;;7.90;99.90;;;;;;5054614;28;20033;-71
2022/11/28 12:09:05;;;;;;;9.80;7.07;;;7.90;99.90;;;;;;5054669;28;20178;-70
2022/11/28 12:11:45;;;;;;;9.13;6.68;;;7.90;99.90;;;;;;5054161;28;20493;-75
2022/11/28 12:14:43;;;;;;;9.93;7.95;;;7.90;99.90;;;;;;5037563;28;20041;-71
2022/11/28 12:17:57;;;;;;;9.23;7.25;;;8.00;99.90;;;;;;5036743;28;20571;-71
2022/11/28 12:20:35;;;;;;;9.95;7.32;;;8.00;99.90;;;;;;5036329;28;20049;-71
2022/11/28 12:23:08;;;;;;;9.07;6.97;;;8.00;99.90;;;;;;5054301;28;20080;-71
2022/11/28 12:26:03;;;;;;;9.48;7.22;;;8.00;99.90;;;;;;5054569;28;20047;-71
2022/11/28 12:29:06;;;;;;;9.27;7.25;;;8.00;99.90;;;;;;5046369;28;20053;-71
2022/11/28 12:31:59;;;;;;;9.52;7.15;;;8.00;99.90;;;;;;5054291;28;20052;-72
2022/11/28 12:34:48;;;;;;;11.13;7.43;;;8.00;99.90;;;;;;5036148;28;20080;-72
2022/11/28 12:37:36;;;;;;;8.48;6.57;;;8.00;99.90;;;;;;5053958;28;20060;-72
2022/11/28 12:40:16;;;;;;;9.95;7.05;;;8.00;99.90;;;;;;5054451;28;20049;-72
2022/11/28 12:43:08;;;;;;;9.15;7.25;;;8.00;99.90;;;;;;5053856;28;20048;-72
2022/11/28 12:46:11;;;;;;;9.50;7.95;;;8.10;99.90;;;;;;5053760;28;20496;-71
2022/11/28 12:49:06;;;;;;;9.07;6.70;;;8.00;99.90;;;;;;5022683;28;20060;-72
2022/11/28 12:51:48;;;;;;;10.02;6.97;;;8.00;99.90;;;;;;5054446;28;20084;-71
2022/11/28 12:54:41;;;;;;;10.95;7.00;;;8.00;99.90;;;;;;5053729;28;20052;-72
2022/11/28 13:00:17;;;;;;;8.77;7.32;;;8.00;99.90;;;;;;5034789;28;20188;-65
2022/11/28 13:03:01;;;;;;;8.98;6.97;;;8.00;99.90;;;;;;5033430;28;20049;-65
2022/11/28 13:05:48;;;;;;;8.73;6.82;;;8.00;99.90;;;;;;5061737;28;20296;-65
2022/11/28 13:08:43;;;;;;;9.00;6.50;;;8.00;99.90;;;;;;5018948;28;20184;-65
2022/11/28 13:11:50;;;;;;;9.43;6.97;;;8.00;99.90;;;;;;5039818;28;20072;-65
2022/11/28 13:14:22;;;;;;;8.20;6.47;;;8.00;99.90;;;;;;5039831;28;20054;-66
2022/11/28 13:16:53;;;;;;;8.57;7.03;;;8.00;99.90;;;;;;5031997;28;20046;-65
2022/11/28 13:19:43;;;;;;;9.77;6.25;;;8.00;99.90;;;;;;5029778;28;20556;-65
2022/11/28 13:22:14;;;;;;;8.95;6.85;;;8.00;99.90;;;;;;5053588;28;20443;-66
2022/11/28 13:25:06;;;;;;;7.90;6.07;;;8.00;99.90;;;;;;5030893;28;20050;-66
2022/11/28 13:27:32;;;;;;;8.48;6.57;;;8.00;99.90;;;;;;5052833;28;20050;-67
2022/11/28 13:29:58;;;;;;;7.40;5.78;;;8.00;99.90;;;;;;5031367;28;20070;-67